Time;durP1;ratioP1;P1;durP2;ratioP2;P2;SDS_P1;SDS_P2;PMS_P1;PMS_P2;Temp;Humidity;BMP_temperature;BMP_pressure;BME280_temperature;BME280_humidity;BME280_pressure;Samples;Min_cycle;Max_cycle;Signal;HPM_P1;HPM_P2
2023/06/29 00:01:32;;;;;;;5.45;3.22;;;;;;;;;;6238100;23;20171;-90
2023/06/29 00:04:37;;;;;;;9.05;3.60;;;;;;;;;;6237559;23;20171;-91
2023/06/29 00:07:43;;;;;;;5.47;3.33;;;;;;;;;;6238613;22;20157;-90
2023/06/29 00:10:49;;;;;;;5.80;3.42;;;;;;;;;;6239280;22;20211;-90
2023/06/29 00:13:53;;;;;;;6.50;2.85;;;;;;;;;;6239248;23;20213;-92
2023/06/29 00:16:58;;;;;;;8.95;3.20;;;;;;;;;;6239008;23;20241;-90
2023/06/29 00:20:04;;;;;;;9.05;4.03;;;;;;;;;;6237711;23;20178;-89
2023/06/29 00:23:11;;;;;;;7.40;3.53;;;;;;;;;;6240355;22;20214;-90
2023/06/29 00:26:16;;;;;;;8.27;3.90;;;;;;;;;;6236666;23;20174;-91
2023/06/29 00:29:22;;;;;;;6.93;3.83;;;;;;;;;;6238307;23;20194;-89
2023/06/29 00:32:27;;;;;;;6.05;3.58;;;;;;;;;;6241159;23;20167;-90
2023/06/29 00:35:33;;;;;;;9.25;3.75;;;;;;;;;;6240377;23;20209;-90
2023/06/29 00:38:39;;;;;;;5.30;3.03;;;;;;;;;;6240540;22;20167;-89
2023/06/29 00:41:44;;;;;;;5.93;3.55;;;;;;;;;;6260353;22;20803;-93
2023/06/29 00:44:49;;;;;;;9.27;3.60;;;;;;;;;;6240728;23;20174;-88
2023/06/29 00:47:54;;;;;;;7.53;3.58;;;;;;;;;;6241130;23;20182;-91
2023/06/29 00:50:59;;;;;;;6.72;3.65;;;;;;;;;;6238744;23;20166;-90
2023/06/29 00:54:06;;;;;;;13.02;3.80;;;;;;;;;;6239533;22;20195;-89
2023/06/29 00:57:13;;;;;;;5.40;3.42;;;;;;;;;;6241059;23;20163;-91
2023/06/29 01:00:19;;;;;;;6.88;3.50;;;;;;;;;;6240164;22;20282;-90
2023/06/29 01:03:24;;;;;;;6.00;3.33;;;;;;;;;;6241909;23;20298;-90
2023/06/29 01:06:30;;;;;;;5.60;3.50;;;;;;;;;;6241146;23;20298;-89
2023/06/29 01:09:37;;;;;;;10.55;3.45;;;;;;;;;;6240079;23;20175;-90
2023/06/29 01:12:45;;;;;;;10.23;3.75;;;;;;;;;;6241253;23;20163;-94
2023/06/29 01:15:50;;;;;;;10.00;3.75;;;;;;;;;;6239277;23;20241;-93
2023/06/29 01:18:58;;;;;;;6.35;3.40;;;;;;;;;;6239247;22;20170;-88
2023/06/29 01:22:04;;;;;;;6.90;3.50;;;;;;;;;;6240827;23;20166;-90
2023/06/29 01:25:12;;;;;;;6.03;3.42;;;;;;;;;;6239137;23;20194;-90
2023/06/29 01:28:17;;;;;;;11.25;3.55;;;;;;;;;;6239368;23;20178;-90
2023/06/29 01:31:27;;;;;;;8.02;3.72;;;;;;;;;;6238067;23;20167;-90
2023/06/29 01:34:34;;;;;;;8.73;3.55;;;;;;;;;;6237431;23;20230;-91
2023/06/29 01:37:42;;;;;;;6.57;3.15;;;;;;;;;;6238676;23;20145;-93
2023/06/29 01:40:48;;;;;;;5.80;3.75;;;;;;;;;;6238221;23;20637;-91
2023/06/29 01:43:54;;;;;;;4.75;3.45;;;;;;;;;;6238579;23;20194;-93
2023/06/29 01:46:59;;;;;;;11.43;3.70;;;;;;;;;;6236812;23;20167;-91
2023/06/29 01:50:05;;;;;;;4.88;3.25;;;;;;;;;;6237348;23;20167;-89
2023/06/29 01:53:09;;;;;;;8.25;3.80;;;;;;;;;;6237799;23;20511;-93
2023/06/29 01:56:17;;;;;;;7.63;3.75;;;;;;;;;;6238189;23;20162;-90
2023/06/29 01:59:22;;;;;;;7.47;3.88;;;;;;;;;;6238213;23;20165;-90
2023/06/29 02:02:26;;;;;;;5.50;3.50;;;;;;;;;;6236828;23;20186;-90
2023/06/29 02:05:32;;;;;;;5.18;3.63;;;;;;;;;;6236406;23;20153;-89
2023/06/29 02:08:39;;;;;;;8.60;3.50;;;;;;;;;;6237973;22;20170;-92
2023/06/29 02:11:47;;;;;;;5.05;3.50;;;;;;;;;;6238911;23;20166;-90
2023/06/29 02:14:52;;;;;;;8.52;3.75;;;;;;;;;;6238636;23;20524;-88
2023/06/29 02:17:57;;;;;;;4.88;3.42;;;;;;;;;;6237964;23;20170;-93
2023/06/29 02:21:02;;;;;;;6.35;3.97;;;;;;;;;;6237963;23;20239;-89
2023/06/29 02:24:08;;;;;;;7.05;3.60;;;;;;;;;;6239157;23;20177;-91
2023/06/29 02:27:14;;;;;;;10.00;4.03;;;;;;;;;;6238858;23;20241;-92
2023/06/29 02:30:23;;;;;;;8.00;3.55;;;;;;;;;;6237586;23;20241;-90
2023/06/29 02:33:28;;;;;;;9.05;3.70;;;;;;;;;;6238424;23;20210;-90
2023/06/29 02:36:34;;;;;;;6.75;3.50;;;;;;;;;;6238268;22;20155;-88
2023/06/29 02:40:04;;;;;;;6.38;3.80;;;;;;;;;;6237545;23;20658;-90
2023/06/29 02:43:11;;;;;;;6.63;3.80;;;;;;;;;;6237523;23;20232;-90
2023/06/29 02:46:18;;;;;;;6.70;3.50;;;;;;;;;;6238088;23;20181;-91
2023/06/29 02:49:24;;;;;;;4.95;3.53;;;;;;;;;;6237444;23;20171;-90
2023/06/29 02:52:29;;;;;;;8.73;3.45;;;;;;;;;;6238219;23;20163;-91
2023/06/29 02:55:34;;;;;;;5.60;3.67;;;;;;;;;;6240152;23;20167;-91
2023/06/29 02:58:40;;;;;;;5.90;4.05;;;;;;;;;;6239376;23;20166;-88
2023/06/29 03:01:49;;;;;;;8.07;3.53;;;;;;;;;;6239807;23;20174;-89
2023/06/29 03:04:54;;;;;;;5.97;3.45;;;;;;;;;;6239388;23;20153;-89
2023/06/29 03:08:00;;;;;;;6.07;3.38;;;;;;;;;;6238871;23;20154;-89
2023/06/29 03:11:05;;;;;;;5.60;3.80;;;;;;;;;;6241265;23;20162;-88
2023/06/29 03:14:11;;;;;;;5.90;4.07;;;;;;;;;;6240081;23;20190;-89
2023/06/29 03:17:19;;;;;;;5.13;3.25;;;;;;;;;;6256115;23;20637;-87
2023/06/29 03:20:28;;;;;;;6.80;4.05;;;;;;;;;;6238906;22;20146;-89
2023/06/29 03:23:33;;;;;;;5.55;3.60;;;;;;;;;;6237402;22;20162;-91
2023/06/29 03:26:38;;;;;;;6.55;3.78;;;;;;;;;;6237326;23;20163;-89
2023/06/29 03:29:44;;;;;;;6.50;3.90;;;;;;;;;;6237031;23;20232;-88
2023/06/29 03:32:49;;;;;;;11.57;4.00;;;;;;;;;;6236316;23;20705;-88
2023/06/29 03:35:54;;;;;;;8.88;4.18;;;;;;;;;;6236673;23;20175;-88
2023/06/29 03:39:24;;;;;;;6.72;3.50;;;;;;;;;;6235315;22;20245;-87
2023/06/29 03:42:29;;;;;;;7.75;3.50;;;;;;;;;;6237009;23;20245;-91
2023/06/29 03:45:35;;;;;;;9.30;4.15;;;;;;;;;;6236991;23;20165;-88
2023/06/29 03:48:40;;;;;;;8.27;4.20;;;;;;;;;;6241324;23;20154;-88
2023/06/29 03:51:45;;;;;;;7.47;3.97;;;;;;;;;;6242386;22;20174;-88
2023/06/29 03:54:51;;;;;;;9.00;4.43;;;;;;;;;;6241413;23;20186;-88
2023/06/29 03:58:11;;;;;;;8.38;4.20;;;;;;;;;;6239080;23;20155;-89
2023/06/29 04:01:21;;;;;;;7.38;3.63;;;;;;;;;;6236667;23;20175;-89
2023/06/29 04:04:26;;;;;;;5.85;3.85;;;;;;;;;;6237637;23;20166;-91
2023/06/29 04:07:32;;;;;;;8.30;4.10;;;;;;;;;;6238911;23;20211;-87
2023/06/29 04:10:37;;;;;;;9.00;3.90;;;;;;;;;;6238733;23;20167;-87
2023/06/29 04:13:42;;;;;;;8.68;3.92;;;;;;;;;;6239598;23;20174;-91
2023/06/29 04:16:48;;;;;;;6.82;3.70;;;;;;;;;;6239965;23;20170;-89
2023/06/29 04:19:55;;;;;;;8.55;4.05;;;;;;;;;;6239763;23;20597;-89
2023/06/29 04:23:00;;;;;;;10.93;4.30;;;;;;;;;;6238458;23;20190;-90
2023/06/29 04:26:07;;;;;;;5.80;3.67;;;;;;;;;;6240044;23;20282;-89
2023/06/29 04:29:12;;;;;;;8.75;3.85;;;;;;;;;;6240655;22;20170;-88
2023/06/29 04:32:19;;;;;;;9.43;4.10;;;;;;;;;;6242212;23;20174;-89
2023/06/29 04:35:24;;;;;;;7.63;3.90;;;;;;;;;;6239569;22;20280;-87
2023/06/29 04:38:30;;;;;;;7.25;3.72;;;;;;;;;;6239831;23;20294;-91
2023/06/29 04:41:40;;;;;;;5.35;3.40;;;;;;;;;;6240859;23;20170;-90
2023/06/29 04:44:46;;;;;;;6.32;3.80;;;;;;;;;;6239736;23;20191;-90
2023/06/29 04:47:54;;;;;;;7.05;3.70;;;;;;;;;;6241445;23;20166;-90
2023/06/29 04:51:05;;;;;;;7.80;4.20;;;;;;;;;;6243944;23;20166;-88
2023/06/29 04:54:10;;;;;;;8.95;4.25;;;;;;;;;;6240774;23;20190;-91
2023/06/29 04:57:54;;;;;;;8.45;4.57;;;;;;;;;;6239826;23;20158;-91
2023/06/29 05:00:59;;;;;;;8.30;4.35;;;;;;;;;;6243164;22;20178;-89
2023/06/29 05:04:06;;;;;;;7.47;3.58;;;;;;;;;;6242697;23;20190;-90
2023/06/29 05:07:11;;;;;;;7.32;3.70;;;;;;;;;;6243473;23;20209;-89
2023/06/29 05:10:16;;;;;;;7.75;3.72;;;;;;;;;;6245605;23;20202;-89
2023/06/29 05:13:21;;;;;;;5.32;3.60;;;;;;;;;;6243208;23;20227;-90
2023/06/29 05:16:27;;;;;;;5.88;3.35;;;;;;;;;;6241692;22;20170;-89
2023/06/29 05:23:49;;;;;;;5.28;3.28;;;;;;;;;;6261387;23;20150;-88
2023/06/29 05:26:56;;;;;;;5.82;3.72;;;;;;;;;;6240468;23;20238;-89
2023/06/29 05:30:02;;;;;;;5.25;3.03;;;;;;;;;;6244349;23;20237;-87
2023/06/29 05:33:07;;;;;;;6.95;3.72;;;;;;;;;;6243890;23;20170;-90
2023/06/29 05:36:13;;;;;;;8.05;3.40;;;;;;;;;;6242430;22;20183;-89
2023/06/29 05:39:20;;;;;;;5.57;3.10;;;;;;;;;;6244183;23;20313;-90
2023/06/29 05:42:29;;;;;;;6.65;3.63;;;;;;;;;;6242699;23;20181;-88
2023/06/29 05:45:34;;;;;;;4.97;3.05;;;;;;;;;;6243093;23;20171;-90
2023/06/29 05:48:40;;;;;;;5.70;3.47;;;;;;;;;;6242919;23;20174;-91
2023/06/29 05:51:46;;;;;;;12.10;3.30;;;;;;;;;;6243313;22;20186;-89
2023/06/29 05:54:52;;;;;;;9.45;3.58;;;;;;;;;;6259793;22;20214;-91
2023/06/29 05:57:59;;;;;;;8.75;3.25;;;;;;;;;;6244367;23;20187;-87
2023/06/29 06:01:05;;;;;;;5.97;3.00;;;;;;;;;;6242531;23;20181;-89
2023/06/29 06:04:10;;;;;;;10.32;3.45;;;;;;;;;;6243009;22;20193;-89
2023/06/29 06:07:16;;;;;;;4.43;2.97;;;;;;;;;;6245104;22;20170;-89
2023/06/29 06:10:23;;;;;;;4.85;3.30;;;;;;;;;;6244350;22;20181;-89
2023/06/29 06:13:28;;;;;;;5.60;2.97;;;;;;;;;;6246298;23;20242;-88
2023/06/29 06:16:34;;;;;;;9.40;3.22;;;;;;;;;;6245885;23;20606;-91
2023/06/29 06:19:44;;;;;;;6.38;3.13;;;;;;;;;;6243050;23;20173;-90
2023/06/29 06:22:53;;;;;;;7.13;3.10;;;;;;;;;;6245146;22;20181;-89
2023/06/29 06:29:35;;;;;;;8.07;3.17;;;;;;;;;;6244627;23;20189;-90
2023/06/29 06:32:41;;;;;;;8.60;3.22;;;;;;;;;;6243705;23;20170;-92
2023/06/29 06:35:48;;;;;;;7.95;3.63;;;;;;;;;;6241489;22;20248;-90
2023/06/29 06:38:54;;;;;;;8.15;3.00;;;;;;;;;;6241186;22;20186;-89
2023/06/29 06:42:00;;;;;;;6.20;3.03;;;;;;;;;;6243543;23;20244;-89
2023/06/29 06:45:08;;;;;;;6.22;3.05;;;;;;;;;;6243568;23;20214;-89
2023/06/29 06:48:14;;;;;;;10.43;3.75;;;;;;;;;;6242251;23;20166;-89
2023/06/29 06:51:19;;;;;;;5.25;3.00;;;;;;;;;;6243076;22;20198;-91
2023/06/29 06:54:25;;;;;;;5.15;2.90;;;;;;;;;;6242323;22;20175;-88
2023/06/29 06:57:29;;;;;;;5.03;3.03;;;;;;;;;;6241733;22;20153;-91
2023/06/29 07:00:36;;;;;;;10.70;3.20;;;;;;;;;;6243754;23;20282;-89
2023/06/29 07:03:41;;;;;;;6.32;3.22;;;;;;;;;;6242136;23;20229;-90
2023/06/29 07:06:47;;;;;;;5.28;2.60;;;;;;;;;;6242816;23;20237;-90
2023/06/29 07:09:53;;;;;;;7.35;3.08;;;;;;;;;;6243369;22;20166;-91
2023/06/29 07:12:58;;;;;;;4.50;2.45;;;;;;;;;;6243240;23;20166;-91
2023/06/29 07:16:06;;;;;;;4.53;2.80;;;;;;;;;;6244297;23;20213;-92
2023/06/29 07:19:27;;;;;;;5.00;2.60;;;;;;;;;;6240649;23;20167;-91
2023/06/29 07:22:33;;;;;;;6.50;2.80;;;;;;;;;;6242393;22;20499;-91
2023/06/29 07:25:39;;;;;;;6.18;2.65;;;;;;;;;;6245483;23;20272;-91
2023/06/29 07:28:45;;;;;;;6.07;2.30;;;;;;;;;;6245248;23;20162;-90
2023/06/29 07:31:52;;;;;;;4.05;2.28;;;;;;;;;;6245271;22;20170;-91
2023/06/29 07:34:57;;;;;;;4.90;2.53;;;;;;;;;;6247276;22;20202;-92
2023/06/29 07:38:03;;;;;;;9.63;2.40;;;;;;;;;;6245999;22;20166;-89
2023/06/29 07:41:10;;;;;;;4.18;2.40;;;;;;;;;;6244555;23;20155;-90
2023/06/29 07:44:20;;;;;;;5.63;2.45;;;;;;;;;;6244715;22;20185;-91
2023/06/29 07:47:27;;;;;;;4.45;2.20;;;;;;;;;;6243309;22;20194;-91
2023/06/29 07:53:56;;;;;;;4.47;2.45;;;;;;;;;;6246701;22;20190;-91
2023/06/29 07:57:20;;;;;;;10.55;2.60;;;;;;;;;;6247243;23;20173;-90
2023/06/29 08:00:36;;;;;;;12.68;2.20;;;;;;;;;;6245664;23;20162;-89
2023/06/29 08:03:44;;;;;;;7.05;2.53;;;;;;;;;;6247067;22;20190;-91
2023/06/29 08:06:50;;;;;;;3.90;2.22;;;;;;;;;;6243988;23;20283;-91
2023/06/29 08:09:55;;;;;;;5.43;2.53;;;;;;;;;;6241788;23;20186;-91
2023/06/29 08:13:01;;;;;;;5.38;2.40;;;;;;;;;;6245790;23;20190;-92
2023/06/29 08:16:10;;;;;;;5.50;2.50;;;;;;;;;;6244958;22;20190;-93
2023/06/29 08:19:18;;;;;;;5.28;2.75;;;;;;;;;;6244699;22;20187;-91
2023/06/29 08:22:23;;;;;;;6.90;2.80;;;;;;;;;;6242481;22;20186;-92
2023/06/29 08:25:28;;;;;;;5.90;2.20;;;;;;;;;;6245076;22;20150;-94
2023/06/29 08:28:35;;;;;;;3.55;2.17;;;;;;;;;;6243523;23;20166;-90
2023/06/29 08:31:40;;;;;;;5.38;2.55;;;;;;;;;;6242420;22;20257;-92
2023/06/29 08:34:47;;;;;;;4.43;2.40;;;;;;;;;;6245099;22;20190;-92
2023/06/29 08:37:52;;;;;;;5.72;2.80;;;;;;;;;;6243951;23;20206;-91
2023/06/29 08:41:00;;;;;;;5.90;2.13;;;;;;;;;;6242909;23;20203;-92
2023/06/29 08:44:07;;;;;;;8.85;2.83;;;;;;;;;;6244768;22;20170;-93
2023/06/29 08:47:12;;;;;;;8.02;2.22;;;;;;;;;;6242325;23;20764;-91
2023/06/29 08:50:21;;;;;;;4.53;2.42;;;;;;;;;;6240587;23;20178;-89
2023/06/29 08:53:26;;;;;;;4.68;2.30;;;;;;;;;;6245505;23;20213;-90
2023/06/29 08:56:33;;;;;;;7.60;2.33;;;;;;;;;;6244328;22;20208;-91
2023/06/29 08:59:40;;;;;;;6.63;1.90;;;;;;;;;;6244211;23;20165;-91
2023/06/29 09:02:45;;;;;;;5.32;2.20;;;;;;;;;;6245438;23;20185;-90
2023/06/29 09:05:54;;;;;;;5.30;2.20;;;;;;;;;;6240239;23;20197;-93
2023/06/29 09:09:00;;;;;;;10.85;2.60;;;;;;;;;;6239868;23;20212;-91
2023/06/29 09:12:06;;;;;;;4.57;2.40;;;;;;;;;;6242078;23;20501;-91
2023/06/29 09:15:13;;;;;;;4.30;2.17;;;;;;;;;;6244989;23;20181;-92
2023/06/29 09:21:47;;;;;;;5.55;2.35;;;;;;;;;;6263750;22;20291;-90
2023/06/29 09:24:57;;;;;;;5.78;2.20;;;;;;;;;;6246903;23;20162;-90
2023/06/29 09:28:04;;;;;;;4.50;2.25;;;;;;;;;;6242531;22;20208;-91
2023/06/29 09:31:09;;;;;;;4.00;1.88;;;;;;;;;;6246332;22;20173;-90
2023/06/29 09:34:18;;;;;;;7.90;2.15;;;;;;;;;;6245183;23;20227;-91
2023/06/29 09:37:25;;;;;;;5.93;1.90;;;;;;;;;;6246089;22;20214;-92
2023/06/29 09:40:52;;;;;;;4.45;1.80;;;;;;;;;;6242263;22;20170;-91
2023/06/29 09:43:57;;;;;;;3.90;1.75;;;;;;;;;;6227605;22;20182;-91
2023/06/29 09:47:05;;;;;;;3.97;1.45;;;;;;;;;;6244153;23;20200;-93
2023/06/29 09:50:19;;;;;;;3.08;1.55;;;;;;;;;;6242889;23;20169;-92
2023/06/29 09:53:34;;;;;;;3.30;1.77;;;;;;;;;;6245876;22;20162;-92
2023/06/29 09:56:41;;;;;;;3.60;1.90;;;;;;;;;;6244846;22;20170;-92
2023/06/29 09:59:47;;;;;;;7.07;2.00;;;;;;;;;;6244728;23;20154;-92
2023/06/29 10:02:52;;;;;;;5.20;2.13;;;;;;;;;;6243828;23;20272;-93
2023/06/29 10:05:59;;;;;;;4.35;2.17;;;;;;;;;;6245970;22;20269;-92
2023/06/29 10:09:07;;;;;;;3.22;1.88;;;;;;;;;;6243808;22;20158;-94
2023/06/29 10:12:14;;;;;;;5.43;1.90;;;;;;;;;;6243045;22;20211;-91
2023/06/29 10:15:20;;;;;;;4.78;1.85;;;;;;;;;;6243398;23;20157;-92
2023/06/29 10:18:29;;;;;;;5.07;1.85;;;;;;;;;;6243022;23;20157;-93
2023/06/29 10:21:35;;;;;;;4.75;1.80;;;;;;;;;;6244113;23;20170;-93
2023/06/29 10:24:45;;;;;;;3.72;1.77;;;;;;;;;;6260608;23;20149;-92
2023/06/29 10:27:52;;;;;;;4.88;1.70;;;;;;;;;;6242423;22;20498;-91
2023/06/29 10:30:59;;;;;;;4.00;1.95;;;;;;;;;;6243667;23;20165;-91
2023/06/29 10:34:08;;;;;;;4.43;1.63;;;;;;;;;;6244796;23;20231;-92
2023/06/29 10:37:30;;;;;;;6.75;2.03;;;;;;;;;;6244038;23;20177;-91
2023/06/29 10:40:46;;;;;;;5.90;1.95;;;;;;;;;;6243745;22;20170;-91
2023/06/29 10:43:55;;;;;;;4.13;1.80;;;;;;;;;;6245547;23;20213;-93
2023/06/29 10:47:01;;;;;;;4.45;1.90;;;;;;;;;;6242607;23;20232;-92
2023/06/29 10:50:18;;;;;;;2.60;1.48;;;;;;;;;;6241529;23;20236;-92
2023/06/29 10:53:24;;;;;;;3.58;1.60;;;;;;;;;;6243075;23;20174;-91
2023/06/29 10:56:39;;;;;;;5.13;1.77;;;;;;;;;;6241519;22;20166;-91
2023/06/29 10:59:44;;;;;;;3.35;1.60;;;;;;;;;;6242839;23;20190;-93
2023/06/29 11:02:50;;;;;;;4.32;1.50;;;;;;;;;;6242557;23;20641;-92
2023/06/29 11:05:56;;;;;;;4.97;1.80;;;;;;;;;;6245277;22;20222;-92
2023/06/29 11:09:02;;;;;;;4.85;1.65;;;;;;;;;;6243526;22;20309;-92
2023/06/29 11:12:09;;;;;;;4.95;2.00;;;;;;;;;;6243722;23;20170;-92
2023/06/29 11:15:15;;;;;;;4.32;1.67;;;;;;;;;;6244332;23;20153;-92
2023/06/29 11:18:48;;;;;;;3.08;1.58;;;;;;;;;;6240985;23;20254;-91
2023/06/29 11:21:55;;;;;;;5.65;1.60;;;;;;;;;;6241179;22;20165;-92
2023/06/29 11:25:01;;;;;;;4.03;1.73;;;;;;;;;;6242100;23;20166;-92
2023/06/29 11:28:10;;;;;;;5.55;1.65;;;;;;;;;;6243851;23;20150;-90
2023/06/29 11:31:16;;;;;;;4.45;2.28;;;;;;;;;;6242995;23;20157;-92
2023/06/29 11:34:22;;;;;;;5.07;1.60;;;;;;;;;;6244439;22;20166;-93
2023/06/29 11:37:27;;;;;;;3.40;1.83;;;;;;;;;;6245250;22;20181;-92
2023/06/29 11:45:01;;;;;;;2.13;1.50;;;;;;;;;;6262670;22;20347;-93
2023/06/29 11:48:08;;;;;;;3.80;1.70;;;;;;;;;;6244720;23;20166;-92
2023/06/29 11:51:13;;;;;;;3.22;1.90;;;;;;;;;;6240237;23;20165;-92
2023/06/29 11:54:18;;;;;;;5.93;1.83;;;;;;;;;;6241256;23;20146;-92
2023/06/29 11:57:25;;;;;;;5.72;1.48;;;;;;;;;;6240070;22;20645;-93
2023/06/29 12:00:33;;;;;;;4.50;1.50;;;;;;;;;;6243756;22;20355;-92
2023/06/29 12:03:39;;;;;;;6.45;2.33;;;;;;;;;;6242784;23;20185;-92
2023/06/29 12:06:51;;;;;;;3.85;1.83;;;;;;;;;;6243658;23;20186;-91
2023/06/29 12:09:57;;;;;;;5.38;1.75;;;;;;;;;;6243110;22;20161;-91
2023/06/29 12:13:03;;;;;;;3.72;1.60;;;;;;;;;;6241010;22;20166;-91
2023/06/29 12:16:11;;;;;;;3.17;1.60;;;;;;;;;;6242507;23;20197;-90
2023/06/29 12:19:20;;;;;;;5.57;1.50;;;;;;;;;;6242838;23;20193;-91
2023/06/29 12:22:25;;;;;;;5.00;1.88;;;;;;;;;;6241333;23;20174;-92
2023/06/29 12:25:30;;;;;;;3.25;1.70;;;;;;;;;;6240987;23;20155;-93
2023/06/29 12:28:36;;;;;;;6.00;1.92;;;;;;;;;;6242918;22;20170;-91
2023/06/29 12:31:43;;;;;;;3.40;1.73;;;;;;;;;;6246949;23;20170;-92
2023/06/29 12:34:50;;;;;;;2.83;1.45;;;;;;;;;;6248107;22;20161;-92
2023/06/29 12:38:25;;;;;;;6.53;1.75;;;;;;;;;;6244674;23;20498;-92
2023/06/29 12:41:44;;;;;;;4.32;1.40;;;;;;;;;;6245312;22;20165;-92
2023/06/29 12:45:00;;;;;;;3.33;1.75;;;;;;;;;;6247578;23;20174;-91
2023/06/29 12:48:07;;;;;;;3.17;1.70;;;;;;;;;;6244725;23;20201;-92
2023/06/29 12:51:13;;;;;;;5.07;1.60;;;;;;;;;;6244542;23;20234;-92
2023/06/29 12:54:18;;;;;;;4.07;1.70;;;;;;;;;;6246956;23;20545;-94
2023/06/29 12:57:26;;;;;;;2.28;1.40;;;;;;;;;;6242089;23;20169;-92
2023/06/29 13:00:31;;;;;;;1.75;1.50;;;;;;;;;;6243992;23;20241;-90
2023/06/29 13:03:38;;;;;;;3.15;1.73;;;;;;;;;;6241321;22;20185;-90
2023/06/29 13:06:43;;;;;;;3.67;1.70;;;;;;;;;;6241712;23;20216;-89
2023/06/29 13:09:49;;;;;;;3.10;1.65;;;;;;;;;;6243568;23;20185;-90
2023/06/29 13:12:53;;;;;;;2.22;1.45;;;;;;;;;;6242544;23;20289;-91
2023/06/29 13:15:59;;;;;;;4.47;1.50;;;;;;;;;;6241537;22;20161;-90
2023/06/29 13:19:05;;;;;;;7.72;1.58;;;;;;;;;;6241412;22;20169;-90
2023/06/29 13:22:11;;;;;;;5.82;1.95;;;;;;;;;;6242730;22;20158;-90
2023/06/29 13:25:16;;;;;;;4.22;1.67;;;;;;;;;;6242385;22;20209;-92
2023/06/29 13:28:21;;;;;;;4.72;1.77;;;;;;;;;;6244048;23;20257;-89
2023/06/29 13:31:26;;;;;;;4.22;1.60;;;;;;;;;;6245793;22;20218;-89
2023/06/29 13:34:33;;;;;;;4.82;1.63;;;;;;;;;;6241731;23;20236;-90
2023/06/29 13:37:38;;;;;;;3.22;1.75;;;;;;;;;;6242415;22;20153;-90
2023/06/29 13:40:49;;;;;;;5.07;1.80;;;;;;;;;;6241932;22;20163;-90
2023/06/29 13:43:55;;;;;;;6.40;2.28;;;;;;;;;;6243009;23;20226;-91
2023/06/29 13:47:01;;;;;;;5.32;1.70;;;;;;;;;;6241705;23;20189;-89
2023/06/29 13:50:08;;;;;;;4.55;1.50;;;;;;;;;;6244914;22;20264;-90
2023/06/29 13:53:14;;;;;;;3.28;1.70;;;;;;;;;;6241528;22;20235;-89
2023/06/29 13:56:20;;;;;;;2.88;1.67;;;;;;;;;;6243106;22;20189;-89
2023/06/29 13:59:25;;;;;;;6.90;1.60;;;;;;;;;;6243905;23;20166;-90
2023/06/29 14:02:30;;;;;;;5.82;1.85;;;;;;;;;;6245114;23;20185;-90
2023/06/29 14:05:37;;;;;;;5.38;1.60;;;;;;;;;;6246401;22;20174;-90
2023/06/29 14:08:43;;;;;;;2.53;1.80;;;;;;;;;;6244338;22;20162;-90
2023/06/29 14:11:48;;;;;;;3.90;1.80;;;;;;;;;;6241767;22;20596;-91
2023/06/29 14:14:54;;;;;;;2.47;1.55;;;;;;;;;;6244609;23;20154;-90
2023/06/29 14:18:00;;;;;;;5.88;1.77;;;;;;;;;;6241175;23;20166;-91
2023/06/29 14:21:10;;;;;;;2.80;1.60;;;;;;;;;;6241329;22;20211;-91
2023/06/29 14:24:15;;;;;;;6.00;2.08;;;;;;;;;;6242543;22;20170;-92
2023/06/29 14:27:21;;;;;;;3.53;1.60;;;;;;;;;;6241632;23;20312;-91
2023/06/29 14:30:26;;;;;;;4.95;1.60;;;;;;;;;;6240075;23;20265;-91
2023/06/29 14:33:33;;;;;;;5.55;3.17;;;;;;;;;;6242946;23;20161;-90
2023/06/29 14:36:43;;;;;;;4.10;1.75;;;;;;;;;;6241901;23;20169;-90
2023/06/29 14:40:24;;;;;;;3.55;1.58;;;;;;;;;;6241989;22;20490;-92
2023/06/29 14:43:30;;;;;;;3.58;1.70;;;;;;;;;;6241148;23;20165;-91
2023/06/29 14:46:35;;;;;;;3.85;1.73;;;;;;;;;;6240203;23;20236;-90
2023/06/29 14:49:40;;;;;;;7.72;1.83;;;;;;;;;;6240980;22;20150;-91
2023/06/29 14:52:48;;;;;;;6.30;2.15;;;;;;;;;;6244768;22;20162;-90
2023/06/29 14:56:05;;;;;;;3.33;1.67;;;;;;;;;;6242519;23;20165;-91
2023/06/29 14:59:11;;;;;;;6.07;1.85;;;;;;;;;;6242175;23;20157;-92
2023/06/29 15:02:16;;;;;;;4.95;1.75;;;;;;;;;;6240198;23;20347;-90
2023/06/29 15:05:21;;;;;;;4.68;1.92;;;;;;;;;;6243010;22;20169;-90
2023/06/29 15:08:33;;;;;;;3.03;1.77;;;;;;;;;;6242244;23;20242;-91
2023/06/29 15:11:38;;;;;;;4.05;1.75;;;;;;;;;;6242207;23;20170;-89
2023/06/29 15:14:43;;;;;;;3.83;1.90;;;;;;;;;;6243937;23;20166;-90
2023/06/29 15:17:49;;;;;;;5.55;1.83;;;;;;;;;;6242348;22;20214;-90
2023/06/29 15:20:54;;;;;;;4.18;1.77;;;;;;;;;;6244921;23;20158;-89
2023/06/29 15:24:01;;;;;;;3.45;1.75;;;;;;;;;;6243860;22;20225;-90
2023/06/29 15:27:06;;;;;;;4.10;1.77;;;;;;;;;;6243036;23;20313;-92
2023/06/29 15:30:13;;;;;;;5.28;1.80;;;;;;;;;;6240503;23;20186;-89
2023/06/29 15:33:18;;;;;;;3.00;1.80;;;;;;;;;;6243710;23;20171;-89
2023/06/29 15:36:23;;;;;;;4.55;1.83;;;;;;;;;;6244195;23;20171;-91
2023/06/29 15:43:04;;;;;;;5.97;1.88;;;;;;;;;;6241062;22;20193;-89
2023/06/29 15:46:10;;;;;;;2.78;1.40;;;;;;;;;;6244091;23;20187;-91
2023/06/29 15:49:16;;;;;;;3.63;1.60;;;;;;;;;;6243443;22;20174;-90
2023/06/29 15:52:22;;;;;;;4.50;1.98;;;;;;;;;;6240239;22;20166;-91
2023/06/29 15:55:27;;;;;;;8.30;2.00;;;;;;;;;;6242997;23;20165;-90
2023/06/29 15:58:33;;;;;;;2.95;1.73;;;;;;;;;;6240481;23;20785;-89
2023/06/29 16:01:39;;;;;;;5.68;1.70;;;;;;;;;;6246598;22;20210;-93
2023/06/29 16:04:48;;;;;;;7.90;2.80;;;;;;;;;;6246007;22;20170;-88
2023/06/29 16:10:49;;;;;;;2.40;1.63;;;;;;;;;;6219126;22;20207;-90
2023/06/29 16:13:56;;;;;;;2.92;1.75;;;;;;;;;;6244164;23;20162;-91
2023/06/29 16:17:03;;;;;;;6.15;2.17;;;;;;;;;;6250139;22;20149;-89
2023/06/29 16:20:10;;;;;;;2.70;1.60;;;;;;;;;;6246163;22;20162;-90
2023/06/29 23:27:51;;;;;;;10.00;4.85;;;;;;;;;;6218751;22;20218;-90
2023/06/29 23:30:57;;;;;;;9.88;5.03;;;;;;;;;;6245212;23;20167;-91
2023/06/29 23:34:03;;;;;;;7.93;4.30;;;;;;;;;;6245894;22;20150;-93
2023/06/29 23:37:08;;;;;;;7.97;4.18;;;;;;;;;;6245466;23;20495;-90
2023/06/29 23:40:15;;;;;;;8.70;4.38;;;;;;;;;;6245125;23;20161;-91
2023/06/29 23:43:23;;;;;;;8.50;4.10;;;;;;;;;;6245238;22;20497;-89
2023/06/29 23:46:28;;;;;;;10.40;4.47;;;;;;;;;;6245155;23;20170;-89
2023/06/29 23:49:34;;;;;;;8.90;4.78;;;;;;;;;;6245515;22;20145;-91
2023/06/29 23:52:40;;;;;;;10.07;4.50;;;;;;;;;;6244818;22;20167;-88
2023/06/29 23:55:48;;;;;;;8.30;4.57;;;;;;;;;;6242742;22;20178;-89
2023/06/29 23:58:56;;;;;;;6.88;4.32;;;;;;;;;;6244457;23;20174;-90
